sensor_id;sensor_type;location;lat;lon;timestamp;pressure;altitude;pressure_sealevel;temperature;humidity
50854;BME280;44154;45.506;-122.806;2023-03-18T00:00:10;100924.31;;;23.30;22.91
50854;BME280;44154;45.506;-122.806;2023-03-18T00:02:38;100926.84;;;23.19;22.73
50854;BME280;44154;45.506;-122.806;2023-03-18T00:05:07;100902.66;;;22.99;22.64
50854;BME280;44154;45.506;-122.806;2023-03-18T00:07:34;100923.50;;;23.17;22.56
50854;BME280;44154;45.506;-122.806;2023-03-18T00:10:05;100902.63;;;23.11;22.61
50854;BME280;44154;45.506;-122.806;2023-03-18T00:12:32;100921.88;;;23.16;22.66
50854;BME280;44154;45.506;-122.806;2023-03-18T00:14:59;100922.69;;;23.17;22.60
50854;BME280;44154;45.506;-122.806;2023-03-18T00:17:25;100918.16;;;23.23;22.56
50854;BME280;44154;45.506;-122.806;2023-03-18T00:19:51;100917.56;;;23.20;22.58
50854;BME280;44154;45.506;-122.806;2023-03-18T00:22:18;100925.50;;;23.22;22.44
50854;BME280;44154;45.506;-122.806;2023-03-18T00:24:44;100918.84;;;23.30;22.61
50854;BME280;44154;45.506;-122.806;2023-03-18T00:27:10;100916.00;;;23.25;22.55
50854;BME280;44154;45.506;-122.806;2023-03-18T00:29:36;100916.00;;;23.25;22.33
50854;BME280;44154;45.506;-122.806;2023-03-18T00:32:03;100917.41;;;23.27;22.54
50854;BME280;44154;45.506;-122.806;2023-03-18T00:34:29;100906.25;;;23.29;22.87
50854;BME280;44154;45.506;-122.806;2023-03-18T00:36:55;100918.72;;;23.25;22.63
50854;BME280;44154;45.506;-122.806;2023-03-18T00:39:24;100920.41;;;23.26;22.73
50854;BME280;44154;45.506;-122.806;2023-03-18T00:41:55;100906.06;;;23.07;22.62
50854;BME280;44154;45.506;-122.806;2023-03-18T00:44:22;100916.28;;;23.11;22.72
50854;BME280;44154;45.506;-122.806;2023-03-18T00:46:49;100913.06;;;23.14;22.81
50854;BME280;44154;45.506;-122.806;2023-03-18T00:49:16;100907.13;;;23.17;22.63
50854;BME280;44154;45.506;-122.806;2023-03-18T00:51:42;100910.28;;;23.26;22.71
50854;BME280;44154;45.506;-122.806;2023-03-18T00:54:12;100911.72;;;23.29;22.96
50854;BME280;44154;45.506;-122.806;2023-03-18T00:56:42;100913.63;;;23.28;23.60
50854;BME280;44154;45.506;-122.806;2023-03-18T00:59:08;100914.13;;;23.25;24.38
50854;BME280;44154;45.506;-122.806;2023-03-18T01:01:35;100911.13;;;23.27;24.88
50854;BME280;44154;45.506;-122.806;2023-03-18T01:04:02;100910.84;;;23.40;25.14
50854;BME280;44154;45.506;-122.806;2023-03-18T01:06:31;100909.31;;;23.61;25.52
50854;BME280;44154;45.506;-122.806;2023-03-18T01:08:57;100903.22;;;23.88;25.50
50854;BME280;44154;45.506;-122.806;2023-03-18T01:11:24;100908.31;;;24.13;25.34
50854;BME280;44154;45.506;-122.806;2023-03-18T01:13:51;100905.78;;;24.29;25.18
50854;BME280;44154;45.506;-122.806;2023-03-18T01:16:18;100900.50;;;24.39;25.16
50854;BME280;44154;45.506;-122.806;2023-03-18T01:18:45;100897.16;;;24.37;25.13
50854;BME280;44154;45.506;-122.806;2023-03-18T01:21:12;100901.69;;;24.48;24.92
50854;BME280;44154;45.506;-122.806;2023-03-18T01:23:40;100903.38;;;24.49;25.18
50854;BME280;44154;45.506;-122.806;2023-03-18T01:26:07;100911.06;;;24.52;25.14
50854;BME280;44154;45.506;-122.806;2023-03-18T01:28:34;100903.94;;;24.51;25.47
50854;BME280;44154;45.506;-122.806;2023-03-18T01:31:00;100909.91;;;24.48;25.40
50854;BME280;44154;45.506;-122.806;2023-03-18T01:33:27;100914.72;;;24.41;25.71
50854;BME280;44154;45.506;-122.806;2023-03-18T01:35:56;100914.06;;;24.34;26.06
50854;BME280;44154;45.506;-122.806;2023-03-18T01:38:23;100913.16;;;24.45;26.35
50854;BME280;44154;45.506;-122.806;2023-03-18T01:40:50;100910.41;;;24.62;26.31
50854;BME280;44154;45.506;-122.806;2023-03-18T01:43:25;100913.97;;;24.85;26.40
50854;BME280;44154;45.506;-122.806;2023-03-18T01:45:58;100919.28;;;24.91;26.38
50854;BME280;44154;45.506;-122.806;2023-03-18T01:48:28;100921.56;;;25.00;26.39
50854;BME280;44154;45.506;-122.806;2023-03-18T01:51:04;100910.97;;;24.86;26.36
50854;BME280;44154;45.506;-122.806;2023-03-18T01:53:37;100913.72;;;24.86;26.44
50854;BME280;44154;45.506;-122.806;2023-03-18T01:56:03;100921.28;;;24.79;26.77
50854;BME280;44154;45.506;-122.806;2023-03-18T01:58:38;100924.53;;;24.76;26.75
50854;BME280;44154;45.506;-122.806;2023-03-18T02:01:13;100930.47;;;24.68;26.94
50854;BME280;44154;45.506;-122.806;2023-03-18T02:03:43;100930.22;;;24.52;27.18
50854;BME280;44154;45.506;-122.806;2023-03-18T02:06:10;100925.03;;;24.34;27.60
50854;BME280;44154;45.506;-122.806;2023-03-18T02:08:38;100932.22;;;24.40;28.24
50854;BME280;44154;45.506;-122.806;2023-03-18T02:11:06;100928.91;;;24.55;28.47
50854;BME280;44154;45.506;-122.806;2023-03-18T02:13:37;100910.81;;;24.71;28.16
50854;BME280;44154;45.506;-122.806;2023-03-18T02:16:14;100929.19;;;24.98;27.68
50854;BME280;44154;45.506;-122.806;2023-03-18T02:18:50;100923.47;;;24.99;27.81
50854;BME280;44154;45.506;-122.806;2023-03-18T02:24:41;100923.28;;;25.06;28.12
50854;BME280;44154;45.506;-122.806;2023-03-18T02:27:26;100917.72;;;25.01;28.13
50854;BME280;44154;45.506;-122.806;2023-03-18T02:30:00;100913.81;;;24.91;28.44
50854;BME280;44154;45.506;-122.806;2023-03-18T02:32:29;100930.22;;;24.91;28.49
50854;BME280;44154;45.506;-122.806;2023-03-18T02:34:59;100908.38;;;24.74;28.80
50854;BME280;44154;45.506;-122.806;2023-03-18T02:37:26;100923.22;;;24.79;29.43
50854;BME280;44154;45.506;-122.806;2023-03-18T02:39:52;100922.31;;;24.73;29.69
50854;BME280;44154;45.506;-122.806;2023-03-18T02:42:31;100915.81;;;24.79;30.46
50854;BME280;44154;45.506;-122.806;2023-03-18T02:44:57;100916.66;;;25.02;31.13
50854;BME280;44154;45.506;-122.806;2023-03-18T02:47:25;100918.50;;;25.18;32.32
50854;BME280;44154;45.506;-122.806;2023-03-18T02:49:53;100924.50;;;25.37;31.53
50854;BME280;44154;45.506;-122.806;2023-03-18T02:52:20;100921.03;;;25.47;31.59
50854;BME280;44154;45.506;-122.806;2023-03-18T02:54:46;100920.00;;;25.53;31.11
50854;BME280;44154;45.506;-122.806;2023-03-18T02:57:12;100913.91;;;25.46;30.48
50854;BME280;44154;45.506;-122.806;2023-03-18T02:59:38;100921.16;;;25.57;30.70
50854;BME280;44154;45.506;-122.806;2023-03-18T03:02:04;100925.91;;;25.40;30.16
50854;BME280;44154;45.506;-122.806;2023-03-18T03:04:31;100930.53;;;25.39;30.24
50854;BME280;44154;45.506;-122.806;2023-03-18T03:06:58;100942.63;;;25.43;30.41
50854;BME280;44154;45.506;-122.806;2023-03-18T03:09:26;100916.16;;;25.27;30.65
50854;BME280;44154;45.506;-122.806;2023-03-18T03:11:53;100948.72;;;25.45;30.96
50854;BME280;44154;45.506;-122.806;2023-03-18T03:14:19;100943.84;;;25.31;31.28
50854;BME280;44154;45.506;-122.806;2023-03-18T03:16:46;100952.47;;;25.39;31.04
50854;BME280;44154;45.506;-122.806;2023-03-18T03:19:13;100938.72;;;25.34;31.37
50854;BME280;44154;45.506;-122.806;2023-03-18T03:21:39;100944.34;;;25.27;31.19
50854;BME280;44154;45.506;-122.806;2023-03-18T03:24:06;100948.94;;;25.22;31.26
50854;BME280;44154;45.506;-122.806;2023-03-18T03:26:32;100958.50;;;25.19;31.14
50854;BME280;44154;45.506;-122.806;2023-03-18T03:28:59;100958.72;;;25.13;31.25
50854;BME280;44154;45.506;-122.806;2023-03-18T03:31:25;100965.50;;;25.10;31.33
50854;BME280;44154;45.506;-122.806;2023-03-18T03:33:52;100958.88;;;25.06;31.37
50854;BME280;44154;45.506;-122.806;2023-03-18T03:36:18;100958.25;;;24.99;31.42
50854;BME280;44154;45.506;-122.806;2023-03-18T03:38:44;100961.19;;;25.14;31.44
50854;BME280;44154;45.506;-122.806;2023-03-18T03:41:11;100953.59;;;25.21;31.25
50854;BME280;44154;45.506;-122.806;2023-03-18T03:43:39;100949.97;;;25.38;31.35
50854;BME280;44154;45.506;-122.806;2023-03-18T03:46:06;100968.81;;;25.56;31.07
50854;BME280;44154;45.506;-122.806;2023-03-18T03:48:34;100963.41;;;25.61;30.84
50854;BME280;44154;45.506;-122.806;2023-03-18T03:51:01;100963.34;;;25.56;30.77
50854;BME280;44154;45.506;-122.806;2023-03-18T03:53:27;100950.59;;;25.45;30.91
50854;BME280;44154;45.506;-122.806;2023-03-18T03:55:54;100970.38;;;25.47;30.97
50854;BME280;44154;45.506;-122.806;2023-03-18T03:58:21;100971.38;;;25.41;30.79
50854;BME280;44154;45.506;-122.806;2023-03-18T04:00:47;100971.38;;;25.41;30.57
50854;BME280;44154;45.506;-122.806;2023-03-18T04:03:14;100949.53;;;25.24;30.61
50854;BME280;44154;45.506;-122.806;2023-03-18T04:05:40;100966.84;;;25.30;30.85
50854;BME280;44154;45.506;-122.806;2023-03-18T04:08:06;100961.81;;;25.21;30.98
50854;BME280;44154;45.506;-122.806;2023-03-18T04:10:33;100951.25;;;25.08;31.02
50854;BME280;44154;45.506;-122.806;2023-03-18T04:13:02;100967.19;;;25.11;30.98
50854;BME280;44154;45.506;-122.806;2023-03-18T04:15:29;100970.16;;;25.09;31.16
50854;BME280;44154;45.506;-122.806;2023-03-18T04:17:55;100969.84;;;25.06;31.26
50854;BME280;44154;45.506;-122.806;2023-03-18T04:20:21;100972.25;;;25.24;31.04
50854;BME280;44154;45.506;-122.806;2023-03-18T04:22:47;100972.53;;;25.45;31.13
50854;BME280;44154;45.506;-122.806;2023-03-18T04:25:14;100976.88;;;25.68;30.59
50854;BME280;44154;45.506;-122.806;2023-03-18T04:27:41;100965.66;;;25.70;30.39
50854;BME280;44154;45.506;-122.806;2023-03-18T04:30:08;100978.38;;;25.81;30.29
50854;BME280;44154;45.506;-122.806;2023-03-18T04:32:35;100979.53;;;25.85;30.00
50854;BME280;44154;45.506;-122.806;2023-03-18T04:35:01;100965.19;;;25.78;29.85
50854;BME280;44154;45.506;-122.806;2023-03-18T04:37:28;100991.06;;;25.87;29.77
50854;BME280;44154;45.506;-122.806;2023-03-18T04:39:54;100989.94;;;25.83;30.10
50854;BME280;44154;45.506;-122.806;2023-03-18T04:42:20;100989.06;;;25.77;29.77
50854;BME280;44154;45.506;-122.806;2023-03-18T04:44:46;100992.00;;;25.71;30.10
50854;BME280;44154;45.506;-122.806;2023-03-18T04:47:12;100990.84;;;25.67;29.92
50854;BME280;44154;45.506;-122.806;2023-03-18T04:49:39;100989.50;;;25.69;30.12
50854;BME280;44154;45.506;-122.806;2023-03-18T04:52:05;100995.50;;;25.66;30.10
50854;BME280;44154;45.506;-122.806;2023-03-18T04:54:32;100991.88;;;25.60;30.01
50854;BME280;44154;45.506;-122.806;2023-03-18T04:56:58;101008.44;;;25.71;30.07
50854;BME280;44154;45.506;-122.806;2023-03-18T04:59:24;101011.69;;;25.68;29.87
50854;BME280;44154;45.506;-122.806;2023-03-18T05:01:51;101010.00;;;25.61;30.03
50854;BME280;44154;45.506;-122.806;2023-03-18T05:04:17;101004.50;;;25.61;30.11
50854;BME280;44154;45.506;-122.806;2023-03-18T05:06:43;101006.66;;;25.59;30.05
50854;BME280;44154;45.506;-122.806;2023-03-18T05:09:09;101007.19;;;25.56;30.07
50854;BME280;44154;45.506;-122.806;2023-03-18T05:11:37;100983.97;;;25.37;30.41
50854;BME280;44154;45.506;-122.806;2023-03-18T05:14:03;101004.81;;;25.65;30.25
50854;BME280;44154;45.506;-122.806;2023-03-18T05:16:29;100995.97;;;25.85;29.82
50854;BME280;44154;45.506;-122.806;2023-03-18T05:18:56;100998.91;;;26.01;29.95
50854;BME280;44154;45.506;-122.806;2023-03-18T05:21:22;101001.94;;;26.04;29.70
50854;BME280;44154;45.506;-122.806;2023-03-18T05:23:48;100999.78;;;26.06;29.57
50854;BME280;44154;45.506;-122.806;2023-03-18T05:26:14;101003.84;;;26.04;29.55
50854;BME280;44154;45.506;-122.806;2023-03-18T05:28:41;101011.75;;;26.00;29.67
50854;BME280;44154;45.506;-122.806;2023-03-18T05:31:07;101012.78;;;25.94;29.74
50854;BME280;44154;45.506;-122.806;2023-03-18T05:33:33;101009.16;;;25.88;29.57
50854;BME280;44154;45.506;-122.806;2023-03-18T05:36:00;101011.88;;;25.83;29.37
50854;BME280;44154;45.506;-122.806;2023-03-18T05:38:27;101003.56;;;25.78;29.80
50854;BME280;44154;45.506;-122.806;2023-03-18T05:40:53;100995.81;;;25.70;29.61
50854;BME280;44154;45.506;-122.806;2023-03-18T05:43:20;101011.25;;;25.76;29.63
50854;BME280;44154;45.506;-122.806;2023-03-18T05:45:46;101004.09;;;25.75;29.64
50854;BME280;44154;45.506;-122.806;2023-03-18T05:48:13;100992.19;;;25.64;29.71
50854;BME280;44154;45.506;-122.806;2023-03-18T05:50:41;100995.44;;;25.61;29.70
50854;BME280;44154;45.506;-122.806;2023-03-18T05:53:09;101001.44;;;25.58;29.84
50854;BME280;44154;45.506;-122.806;2023-03-18T05:55:37;101003.09;;;25.59;29.93
50854;BME280;44154;45.506;-122.806;2023-03-18T05:58:04;101001.69;;;25.56;30.30
50854;BME280;44154;45.506;-122.806;2023-03-18T06:00:31;100980.19;;;25.43;30.53
50854;BME280;44154;45.506;-122.806;2023-03-18T06:02:58;101005.97;;;25.69;30.44
50854;BME280;44154;45.506;-122.806;2023-03-18T06:05:26;100997.94;;;25.90;30.09
50854;BME280;44154;45.506;-122.806;2023-03-18T06:07:52;101004.13;;;26.02;29.63
50854;BME280;44154;45.506;-122.806;2023-03-18T06:10:21;100999.44;;;26.03;29.43
50854;BME280;44154;45.506;-122.806;2023-03-18T06:12:48;100995.25;;;25.95;29.44
50854;BME280;44154;45.506;-122.806;2023-03-18T06:15:15;100988.34;;;25.87;29.72
50854;BME280;44154;45.506;-122.806;2023-03-18T06:17:42;100968.91;;;25.67;29.74
50854;BME280;44154;45.506;-122.806;2023-03-18T06:20:10;100978.03;;;25.72;29.80
50854;BME280;44154;45.506;-122.806;2023-03-18T06:22:37;100964.47;;;25.60;29.80
50854;BME280;44154;45.506;-122.806;2023-03-18T06:25:04;100974.13;;;25.68;29.69
50854;BME280;44154;45.506;-122.806;2023-03-18T06:27:33;100973.25;;;25.62;29.76
50854;BME280;44154;45.506;-122.806;2023-03-18T06:30:00;100979.59;;;25.63;29.65
50854;BME280;44154;45.506;-122.806;2023-03-18T06:32:30;100962.44;;;25.51;29.84
50854;BME280;44154;45.506;-122.806;2023-03-18T06:34:56;100971.72;;;25.44;29.64
50854;BME280;44154;45.506;-122.806;2023-03-18T06:37:23;100959.22;;;25.32;29.68
50854;BME280;44154;45.506;-122.806;2023-03-18T06:39:49;100965.75;;;25.31;30.41
50854;BME280;44154;45.506;-122.806;2023-03-18T06:42:16;100974.63;;;25.38;31.71
50854;BME280;44154;45.506;-122.806;2023-03-18T06:44:42;100965.19;;;25.28;34.97
50854;BME280;44154;45.506;-122.806;2023-03-18T06:47:15;100981.06;;;25.49;33.67
50854;BME280;44154;45.506;-122.806;2023-03-18T06:49:42;100977.19;;;25.72;32.72
50854;BME280;44154;45.506;-122.806;2023-03-18T06:52:08;100955.28;;;25.72;32.38
50854;BME280;44154;45.506;-122.806;2023-03-18T06:54:34;100968.81;;;25.84;32.39
50854;BME280;44154;45.506;-122.806;2023-03-18T06:57:00;100981.81;;;25.93;31.52
50854;BME280;44154;45.506;-122.806;2023-03-18T06:59:26;100978.13;;;25.83;31.28
50854;BME280;44154;45.506;-122.806;2023-03-18T07:01:53;100989.06;;;25.77;31.09
50854;BME280;44154;45.506;-122.806;2023-03-18T07:04:19;100940.41;;;25.40;30.95
50854;BME280;44154;45.506;-122.806;2023-03-18T07:06:45;100983.91;;;25.59;31.15
50854;BME280;44154;45.506;-122.806;2023-03-18T07:09:11;100993.66;;;25.50;31.24
50854;BME280;44154;45.506;-122.806;2023-03-18T07:11:39;100982.59;;;25.39;31.11
50854;BME280;44154;45.506;-122.806;2023-03-18T07:14:06;100984.78;;;25.37;31.11
50854;BME280;44154;45.506;-122.806;2023-03-18T07:16:32;100987.66;;;25.31;31.28
50854;BME280;44154;45.506;-122.806;2023-03-18T07:18:58;100977.63;;;25.14;31.55
50854;BME280;44154;45.506;-122.806;2023-03-18T07:21:26;100997.47;;;25.26;31.42
50854;BME280;44154;45.506;-122.806;2023-03-18T07:23:56;100993.63;;;25.22;31.58
50854;BME280;44154;45.506;-122.806;2023-03-18T07:26:22;101008.19;;;25.28;31.33
50854;BME280;44154;45.506;-122.806;2023-03-18T07:28:48;100999.16;;;25.27;31.28
50854;BME280;44154;45.506;-122.806;2023-03-18T07:31:15;101008.44;;;25.26;31.10
50854;BME280;44154;45.506;-122.806;2023-03-18T07:33:41;100983.53;;;25.06;31.12
50854;BME280;44154;45.506;-122.806;2023-03-18T07:36:07;100997.88;;;25.13;31.08
50854;BME280;44154;45.506;-122.806;2023-03-18T07:38:34;100990.72;;;25.12;31.19
50854;BME280;44154;45.506;-122.806;2023-03-18T07:41:00;100985.13;;;25.02;31.23
50854;BME280;44154;45.506;-122.806;2023-03-18T07:43:26;100994.50;;;25.06;31.27
50854;BME280;44154;45.506;-122.806;2023-03-18T07:45:52;100990.59;;;25.02;31.21
50854;BME280;44154;45.506;-122.806;2023-03-18T07:48:18;100982.31;;;24.97;31.16
50854;BME280;44154;45.506;-122.806;2023-03-18T07:50:45;100973.47;;;24.89;31.25
50854;BME280;44154;45.506;-122.806;2023-03-18T07:53:11;100983.66;;;24.94;31.26
50854;BME280;44154;45.506;-122.806;2023-03-18T07:55:37;100974.19;;;24.85;31.46
50854;BME280;44154;45.506;-122.806;2023-03-18T07:58:03;100942.75;;;24.65;31.54
50854;BME280;44154;45.506;-122.806;2023-03-18T08:00:30;100982.16;;;24.86;31.31
50854;BME280;44154;45.506;-122.806;2023-03-18T08:02:57;100981.34;;;24.86;31.34
50854;BME280;44154;45.506;-122.806;2023-03-18T08:05:23;100940.41;;;24.57;31.31
50854;BME280;44154;45.506;-122.806;2023-03-18T08:07:50;100964.63;;;24.65;31.25
50854;BME280;44154;45.506;-122.806;2023-03-18T08:10:16;100980.31;;;24.70;31.43
50854;BME280;44154;45.506;-122.806;2023-03-18T08:12:42;100929.16;;;24.36;31.35
50854;BME280;44154;45.506;-122.806;2023-03-18T08:15:08;100982.94;;;24.65;31.30
50854;BME280;44154;45.506;-122.806;2023-03-18T08:17:37;100982.63;;;24.61;31.36
50854;BME280;44154;45.506;-122.806;2023-03-18T08:20:04;100990.59;;;24.63;31.32
50854;BME280;44154;45.506;-122.806;2023-03-18T08:22:31;100984.94;;;24.52;31.29
50854;BME280;44154;45.506;-122.806;2023-03-18T08:24:57;100996.63;;;24.65;31.33
50854;BME280;44154;45.506;-122.806;2023-03-18T08:27:24;100988.50;;;24.87;32.82
50854;BME280;44154;45.506;-122.806;2023-03-18T08:29:50;100994.34;;;24.96;32.57
50854;BME280;44154;45.506;-122.806;2023-03-18T08:32:16;100998.50;;;25.20;31.83
50854;BME280;44154;45.506;-122.806;2023-03-18T08:34:44;101000.44;;;25.42;32.29
50854;BME280;44154;45.506;-122.806;2023-03-18T08:37:10;100988.34;;;25.38;33.18
50854;BME280;44154;45.506;-122.806;2023-03-18T08:39:36;100998.00;;;25.23;32.64
50854;BME280;44154;45.506;-122.806;2023-03-18T08:42:03;100994.56;;;25.11;32.56
50854;BME280;44154;45.506;-122.806;2023-03-18T08:44:29;100976.78;;;24.91;32.04
50854;BME280;44154;45.506;-122.806;2023-03-18T08:46:56;100983.31;;;24.90;31.68
50854;BME280;44154;45.506;-122.806;2023-03-18T08:49:23;100977.41;;;24.76;31.46
50854;BME280;44154;45.506;-122.806;2023-03-18T08:51:50;100967.44;;;24.70;31.33
50854;BME280;44154;45.506;-122.806;2023-03-18T08:54:17;100983.84;;;24.70;31.29
50854;BME280;44154;45.506;-122.806;2023-03-18T08:56:44;100979.75;;;24.68;31.34
50854;BME280;44154;45.506;-122.806;2023-03-18T08:59:10;100975.09;;;24.68;31.37
50854;BME280;44154;45.506;-122.806;2023-03-18T09:01:37;100974.25;;;24.68;31.23
50854;BME280;44154;45.506;-122.806;2023-03-18T09:04:04;100958.66;;;24.51;31.30
50854;BME280;44154;45.506;-122.806;2023-03-18T09:06:31;100949.88;;;24.49;31.13
50854;BME280;44154;45.506;-122.806;2023-03-18T09:08:57;100987.59;;;24.64;30.93
50854;BME280;44154;45.506;-122.806;2023-03-18T09:11:24;100984.38;;;24.67;30.94
50854;BME280;44154;45.506;-122.806;2023-03-18T09:13:51;100969.09;;;24.54;30.90
50854;BME280;44154;45.506;-122.806;2023-03-18T09:16:18;100975.72;;;24.58;30.78
50854;BME280;44154;45.506;-122.806;2023-03-18T09:18:44;100974.75;;;24.65;31.98
50854;BME280;44154;45.506;-122.806;2023-03-18T09:21:10;100965.28;;;24.72;32.62
50854;BME280;44154;45.506;-122.806;2023-03-18T09:23:36;100960.47;;;24.80;31.98
50854;BME280;44154;45.506;-122.806;2023-03-18T09:26:03;100963.34;;;25.12;31.31
50854;BME280;44154;45.506;-122.806;2023-03-18T09:28:29;100967.94;;;25.28;31.46
50854;BME280;44154;45.506;-122.806;2023-03-18T09:30:55;100959.13;;;25.26;31.86
50854;BME280;44154;45.506;-122.806;2023-03-18T09:33:22;100966.78;;;25.24;31.24
50854;BME280;44154;45.506;-122.806;2023-03-18T09:35:49;100961.19;;;25.14;31.80
50854;BME280;44154;45.506;-122.806;2023-03-18T09:38:19;100963.41;;;24.95;31.98
50854;BME280;44154;45.506;-122.806;2023-03-18T09:41:06;100958.53;;;24.80;31.91
50854;BME280;44154;45.506;-122.806;2023-03-18T09:46:44;100933.47;;;24.49;31.90
50854;BME280;44154;45.506;-122.806;2023-03-18T09:49:31;100949.69;;;24.56;31.81
50854;BME280;44154;45.506;-122.806;2023-03-18T09:52:34;100942.19;;;24.46;31.56
50854;BME280;44154;45.506;-122.806;2023-03-18T09:55:04;100951.03;;;24.53;31.54
50854;BME280;44154;45.506;-122.806;2023-03-18T09:57:42;100950.78;;;24.55;31.43
50854;BME280;44154;45.506;-122.806;2023-03-18T10:00:35;100904.06;;;24.22;31.28
50854;BME280;44154;45.506;-122.806;2023-03-18T10:08:29;100953.75;;;25.09;32.28
50854;BME280;44154;45.506;-122.806;2023-03-18T10:11:03;100940.34;;;25.35;31.99
50854;BME280;44154;45.506;-122.806;2023-03-18T10:13:56;100956.31;;;25.66;31.16
50854;BME280;44154;45.506;-122.806;2023-03-18T10:16:28;100956.88;;;25.68;30.71
50854;BME280;44154;45.506;-122.806;2023-03-18T10:18:55;100945.72;;;25.47;30.57
50854;BME280;44154;45.506;-122.806;2023-03-18T10:21:49;100967.25;;;25.38;30.52
50854;BME280;44154;45.506;-122.806;2023-03-18T10:24:27;100966.44;;;25.21;30.85
50854;BME280;44154;45.506;-122.806;2023-03-18T10:40:35;100957.66;;;24.74;36.12
50854;BME280;44154;45.506;-122.806;2023-03-18T10:43:03;100969.56;;;24.85;36.26
50854;BME280;44154;45.506;-122.806;2023-03-18T10:45:31;100974.16;;;25.02;35.28
50854;BME280;44154;45.506;-122.806;2023-03-18T10:48:03;100916.03;;;24.94;34.91
50854;BME280;44154;45.506;-122.806;2023-03-18T10:50:32;100967.56;;;25.42;34.28
50854;BME280;44154;45.506;-122.806;2023-03-18T10:53:41;100965.13;;;25.23;34.14
50854;BME280;44154;45.506;-122.806;2023-03-18T10:56:12;100913.69;;;24.81;34.28
50854;BME280;44154;45.506;-122.806;2023-03-18T10:58:40;100965.66;;;24.98;34.46
50854;BME280;44154;45.506;-122.806;2023-03-18T11:01:09;100960.84;;;24.88;34.49
50854;BME280;44154;45.506;-122.806;2023-03-18T11:06:16;100962.31;;;24.74;35.18
50854;BME280;44154;45.506;-122.806;2023-03-18T11:08:47;100961.22;;;24.75;36.13
50854;BME280;44154;45.506;-122.806;2023-03-18T11:11:25;100952.75;;;24.76;35.63
50854;BME280;44154;45.506;-122.806;2023-03-18T11:13:54;100959.19;;;24.87;35.64
50854;BME280;44154;45.506;-122.806;2023-03-18T11:16:28;100952.13;;;25.14;35.13
50854;BME280;44154;45.506;-122.806;2023-03-18T11:18:56;100951.56;;;25.34;34.39
50854;BME280;44154;45.506;-122.806;2023-03-18T11:21:24;100946.03;;;25.28;34.18
50854;BME280;44154;45.506;-122.806;2023-03-18T11:23:58;100956.91;;;25.23;34.58
50854;BME280;44154;45.506;-122.806;2023-03-18T11:26:53;100948.75;;;25.06;34.46
50854;BME280;44154;45.506;-122.806;2023-03-18T11:29:26;100945.84;;;24.91;34.75
50854;BME280;44154;45.506;-122.806;2023-03-18T11:31:58;100942.97;;;24.81;35.45
50854;BME280;44154;45.506;-122.806;2023-03-18T11:34:28;100944.22;;;24.73;35.52
50854;BME280;44154;45.506;-122.806;2023-03-18T11:36:59;100947.53;;;24.75;35.54
50854;BME280;44154;45.506;-122.806;2023-03-18T11:39:34;100925.56;;;24.70;35.21
50854;BME280;44154;45.506;-122.806;2023-03-18T11:42:15;100941.25;;;24.97;34.33
50854;BME280;44154;45.506;-122.806;2023-03-18T11:44:42;100950.41;;;25.30;34.12
50854;BME280;44154;45.506;-122.806;2023-03-18T11:49:40;100944.81;;;25.41;33.91
50854;BME280;44154;45.506;-122.806;2023-03-18T11:52:54;100951.41;;;25.23;34.00
50854;BME280;44154;45.506;-122.806;2023-03-18T11:55:08;100945.44;;;25.04;34.12
50854;BME280;44154;45.506;-122.806;2023-03-18T12:06:22;100949.19;;;24.76;34.80
50854;BME280;44154;45.506;-122.806;2023-03-18T12:14:43;100930.13;;;25.31;33.58
50854;BME280;44154;45.506;-122.806;2023-03-18T12:19:53;100949.16;;;25.37;33.46
50854;BME280;44154;45.506;-122.806;2023-03-18T12:26:07;100942.97;;;25.03;33.70
50854;BME280;44154;45.506;-122.806;2023-03-18T12:28:17;100955.63;;;24.87;33.70
50854;BME280;44154;45.506;-122.806;2023-03-18T12:31:01;100949.19;;;24.76;33.70
50854;BME280;44154;45.506;-122.806;2023-03-18T12:39:19;100947.09;;;24.83;33.82
50854;BME280;44154;45.506;-122.806;2023-03-18T12:41:59;100951.38;;;25.18;33.17
50854;BME280;44154;45.506;-122.806;2023-03-18T12:55:45;100960.22;;;25.03;33.00
50854;BME280;44154;45.506;-122.806;2023-03-18T12:58:26;100952.50;;;24.78;33.49
50854;BME280;44154;45.506;-122.806;2023-03-18T13:05:54;100963.72;;;24.76;33.75
50854;BME280;44154;45.506;-122.806;2023-03-18T13:08:40;100966.59;;;24.87;33.35
50854;BME280;44154;45.506;-122.806;2023-03-18T13:13:56;100959.94;;;25.44;32.38
50854;BME280;44154;45.506;-122.806;2023-03-18T13:16:25;100974.00;;;25.53;32.06
50854;BME280;44154;45.506;-122.806;2023-03-18T13:18:55;100954.91;;;25.36;32.38
50854;BME280;44154;45.506;-122.806;2023-03-18T13:21:27;100971.75;;;25.27;32.48
50854;BME280;44154;45.506;-122.806;2023-03-18T13:29:41;100973.91;;;24.81;32.94
50854;BME280;44154;45.506;-122.806;2023-03-18T13:38:02;100966.63;;;24.92;32.92
50854;BME280;44154;45.506;-122.806;2023-03-18T13:43:19;100968.50;;;25.53;31.76
50854;BME280;44154;45.506;-122.806;2023-03-18T13:45:52;100970.47;;;25.57;31.94
50854;BME280;44154;45.506;-122.806;2023-03-18T13:48:31;100968.16;;;25.44;31.86
50854;BME280;44154;45.506;-122.806;2023-03-18T13:50:58;100950.34;;;25.24;32.14
50854;BME280;44154;45.506;-122.806;2023-03-18T13:53:33;100963.34;;;25.12;32.24
50854;BME280;44154;45.506;-122.806;2023-03-18T13:56:06;100945.00;;;24.90;32.46
50854;BME280;44154;45.506;-122.806;2023-03-18T13:58:50;100950.84;;;24.77;32.64